createdAt,value
2019-04-07T00:00:09.807Z,11.10
2019-04-07T00:01:10.275Z,10.10
2019-04-07T00:02:09.784Z,10.30
2019-04-07T00:03:09.782Z,10.50
2019-04-07T00:04:09.770Z,10.80
2019-04-07T00:05:13.975Z,10.10
2019-04-07T00:06:09.744Z,10.00
2019-04-07T00:07:10.255Z,10.10
2019-04-07T00:08:10.128Z,10.70
2019-04-07T00:09:09.760Z,10.30
2019-04-07T00:10:09.908Z,10.40
2019-04-07T00:11:09.685Z,9.70
2019-04-07T00:12:09.678Z,10.40
2019-04-07T00:13:10.056Z,9.80
2019-04-07T00:14:09.663Z,10.10
2019-04-07T00:15:10.373Z,10.50
2019-04-07T00:16:09.829Z,9.90
2019-04-07T00:17:09.623Z,10.30
2019-04-07T00:18:10.311Z,11.40
2019-04-07T00:19:09.841Z,10.00
2019-04-07T00:20:09.820Z,10.60
2019-04-07T00:21:09.990Z,11.00
2019-04-07T00:22:10.208Z,10.10
2019-04-07T00:23:09.623Z,10.30
2019-04-07T00:24:09.547Z,10.20
2019-04-07T00:25:09.545Z,10.70
2019-04-07T00:26:09.756Z,10.00
2019-04-07T00:27:10.177Z,10.30
2019-04-07T00:28:10.051Z,10.20
2019-04-07T00:29:09.745Z,10.50
2019-04-07T00:30:09.483Z,10.60
2019-04-07T00:31:09.478Z,10.50
2019-04-07T00:32:09.480Z,10.20
2019-04-07T00:33:09.464Z,10.20
2019-04-07T00:34:09.641Z,10.00
2019-04-07T00:35:21.069Z,10.00
2019-04-07T00:36:10.431Z,10.30
2019-04-07T00:37:09.419Z,10.40
2019-04-07T00:38:09.612Z,9.90
2019-04-07T00:39:09.497Z,10.30
2019-04-07T00:40:09.637Z,9.70
2019-04-07T00:41:09.544Z,10.40
2019-04-07T00:42:10.476Z,9.70
2019-04-07T00:43:09.970Z,9.50
2019-04-07T00:44:09.336Z,9.90
2019-04-07T00:45:09.775Z,10.20
2019-04-07T00:46:09.323Z,10.10
2019-04-07T00:47:09.453Z,9.80
2019-04-07T00:48:09.295Z,10.00
2019-04-07T00:49:09.502Z,9.90
2019-04-07T00:50:09.268Z,9.50
2019-04-07T00:51:09.263Z,10.90
2019-04-07T00:52:09.436Z,9.50
2019-04-07T00:53:09.815Z,10.30
2019-04-07T00:54:09.301Z,10.30
2019-04-07T00:55:09.926Z,9.70
2019-04-07T00:56:09.390Z,9.70
2019-04-07T00:57:09.829Z,9.70
2019-04-07T00:58:09.184Z,9.90
2019-04-07T00:59:09.172Z,10.10
2019-04-07T01:00:09.644Z,9.90
2019-04-07T01:01:09.154Z,10.00
2019-04-07T01:02:09.152Z,10.00
2019-04-07T01:03:09.497Z,10.60
2019-04-07T01:04:09.123Z,9.50
2019-04-07T01:05:09.109Z,10.40
2019-04-07T01:06:09.750Z,10.10
2019-04-07T01:07:09.161Z,10.60
2019-04-07T01:08:09.698Z,10.20
2019-04-07T01:09:09.158Z,9.60
2019-04-07T01:10:09.670Z,10.40
2019-04-07T01:11:09.045Z,10.00
2019-04-07T01:12:09.414Z,9.60
2019-04-07T01:13:09.265Z,10.40
2019-04-07T01:14:09.332Z,10.20
2019-04-07T01:15:09.007Z,10.20
2019-04-07T01:16:08.991Z,9.60
2019-04-07T01:17:08.985Z,10.20
2019-04-07T01:18:08.970Z,9.90
2019-04-07T01:19:08.972Z,9.90
2019-04-07T01:20:09.045Z,9.90
2019-04-07T01:21:09.459Z,10.20
2019-04-07T01:22:09.050Z,10.10
2019-04-07T01:23:08.914Z,10.10
2019-04-07T01:24:08.910Z,9.70
2019-04-07T01:25:09.006Z,9.70
2019-04-07T01:26:09.683Z,10.00
2019-04-07T01:27:09.265Z,9.30
2019-04-07T01:28:08.858Z,10.00
2019-04-07T01:29:09.217Z,9.40
2019-04-07T01:30:09.438Z,10.00
2019-04-07T01:31:08.867Z,10.00
2019-04-07T01:32:08.861Z,9.90
2019-04-07T01:33:08.807Z,10.10
2019-04-07T01:34:08.797Z,10.10
2019-04-07T01:35:08.791Z,10.10
2019-04-07T01:36:09.464Z,10.50
2019-04-07T01:37:08.859Z,9.90
2019-04-07T01:38:08.764Z,9.70
2019-04-07T01:39:08.754Z,10.10
2019-04-07T01:40:09.090Z,10.00
2019-04-07T01:41:09.819Z,9.60
2019-04-07T01:42:09.163Z,9.30
2019-04-07T01:43:09.221Z,10.00
2019-04-07T01:44:08.989Z,10.10
2019-04-07T01:45:08.891Z,9.70
2019-04-07T01:46:08.912Z,9.40
2019-04-07T01:47:08.903Z,9.90
2019-04-07T01:48:08.802Z,10.20
2019-04-07T01:49:10.130Z,9.30
2019-04-07T01:50:08.637Z,10.30
2019-04-07T01:51:09.091Z,9.80
2019-04-07T01:52:08.612Z,9.90
2019-04-07T01:53:08.875Z,10.00
2019-04-07T01:54:08.664Z,9.50
2019-04-07T01:55:09.168Z,9.40
2019-04-07T01:56:08.577Z,9.10
2019-04-07T01:57:09.208Z,9.50
2019-04-07T01:58:08.550Z,9.50
2019-04-07T01:59:10.589Z,9.90
2019-04-07T02:00:08.515Z,9.70
2019-04-07T02:01:08.528Z,10.30
2019-04-07T02:02:08.493Z,9.70
2019-04-07T02:03:08.486Z,8.90
2019-04-07T02:04:09.324Z,9.80
2019-04-07T02:05:08.461Z,8.90
2019-04-07T02:06:08.453Z,9.50
2019-04-07T02:07:08.443Z,9.50
2019-04-07T02:08:08.660Z,9.90
2019-04-07T02:09:08.421Z,10.10
2019-04-07T02:10:08.708Z,10.30
2019-04-07T02:11:08.396Z,10.10
2019-04-07T02:12:08.386Z,9.40
2019-04-07T02:13:08.561Z,9.70
2019-04-07T02:14:08.677Z,9.70
2019-04-07T02:15:08.540Z,9.70
2019-04-07T02:16:08.364Z,9.70
2019-04-07T02:17:08.333Z,9.40
2019-04-07T02:18:08.323Z,9.30
2019-04-07T02:19:08.725Z,9.90
2019-04-07T02:20:08.323Z,8.70
2019-04-07T02:21:08.500Z,9.70
2019-04-07T02:22:08.479Z,9.30
2019-04-07T02:23:08.566Z,9.50
2019-04-07T02:24:08.261Z,9.40
2019-04-07T02:25:08.254Z,9.60
2019-04-07T02:26:08.237Z,9.30
2019-04-07T02:27:08.583Z,9.70
2019-04-07T02:28:08.214Z,9.60
2019-04-07T02:29:08.205Z,9.50
2019-04-07T02:30:08.196Z,8.60
2019-04-07T02:31:08.311Z,8.90
2019-04-07T02:32:08.178Z,9.60
2019-04-07T02:33:08.480Z,10.10
2019-04-07T02:34:08.159Z,9.30
2019-04-07T02:35:08.745Z,10.00
2019-04-07T02:36:17.796Z,9.50
2019-04-07T02:37:09.927Z,10.20
2019-04-07T02:38:08.292Z,9.50
2019-04-07T02:39:09.143Z,9.50
2019-04-07T02:40:09.561Z,9.00
2019-04-07T02:41:09.054Z,9.10
2019-04-07T02:42:08.806Z,9.40
2019-04-07T02:43:08.517Z,9.30
2019-04-07T02:44:09.210Z,9.50
2019-04-07T02:45:08.935Z,9.10
2019-04-07T02:46:08.022Z,9.70
2019-04-07T02:47:08.424Z,9.30
2019-04-07T02:48:08.001Z,9.20
2019-04-07T02:49:08.246Z,9.50
2019-04-07T02:50:07.985Z,9.00
2019-04-07T02:51:07.988Z,8.80
2019-04-07T02:52:09.019Z,9.80
2019-04-07T02:53:07.947Z,9.70
2019-04-07T02:54:07.955Z,9.10
2019-04-07T02:55:08.454Z,10.10
2019-04-07T02:56:08.269Z,9.50
2019-04-07T02:57:08.029Z,9.60
2019-04-07T02:58:08.726Z,9.10
2019-04-07T02:59:07.961Z,9.30
2019-04-07T03:00:07.887Z,9.90
2019-04-07T03:01:07.873Z,10.00
2019-04-07T03:02:08.209Z,9.50
2019-04-07T03:03:08.752Z,9.40
2019-04-07T03:04:07.847Z,9.20
2019-04-07T03:05:08.182Z,9.20
2019-04-07T03:06:07.816Z,8.80
2019-04-07T03:07:07.803Z,9.70
2019-04-07T03:08:08.945Z,9.30
2019-04-07T03:09:08.790Z,9.40
2019-04-07T03:10:08.746Z,9.30
2019-04-07T03:11:07.760Z,9.30
2019-04-07T03:12:07.743Z,8.80
2019-04-07T03:13:07.738Z,9.30
2019-04-07T03:14:07.722Z,9.00
2019-04-07T03:15:07.711Z,9.20
2019-04-07T03:16:07.754Z,9.40
2019-04-07T03:17:08.268Z,9.10
2019-04-07T03:18:07.694Z,9.10
2019-04-07T03:19:07.847Z,9.00
2019-04-07T03:20:07.658Z,9.20
2019-04-07T03:21:07.740Z,9.20
2019-04-07T03:22:08.463Z,9.40
2019-04-07T03:23:07.631Z,8.80
2019-04-07T03:24:08.053Z,8.90
2019-04-07T03:25:07.608Z,9.30
2019-04-07T03:26:07.960Z,9.20
2019-04-07T03:27:08.046Z,9.10
2019-04-07T03:28:07.577Z,9.60
2019-04-07T03:29:07.563Z,9.70
2019-04-07T03:30:09.050Z,9.40
2019-04-07T03:31:07.965Z,9.10
2019-04-07T03:32:08.633Z,9.20
2019-04-07T03:33:11.151Z,9.10
2019-04-07T03:34:09.742Z,9.50
2019-04-07T03:35:07.630Z,9.20
2019-04-07T03:36:10.708Z,9.30
2019-04-07T03:37:22.936Z,9.50
2019-04-07T03:38:08.462Z,9.80
2019-04-07T03:39:07.468Z,9.10
2019-04-07T03:40:08.305Z,9.30
2019-04-07T03:41:08.360Z,9.30
2019-04-07T03:42:08.519Z,9.20
2019-04-07T03:43:07.432Z,9.20
2019-04-07T03:44:07.801Z,9.70
2019-04-07T03:45:08.253Z,9.10
2019-04-07T03:46:08.080Z,9.30
2019-04-07T03:47:07.380Z,9.40
2019-04-07T03:48:08.390Z,9.40
2019-04-07T03:49:07.384Z,9.20
2019-04-07T03:50:07.341Z,9.10
2019-04-07T03:51:07.346Z,9.20
2019-04-07T03:52:07.325Z,9.40
2019-04-07T03:53:08.123Z,9.20
2019-04-07T03:54:07.333Z,8.80
2019-04-07T03:55:07.297Z,9.30
2019-04-07T03:56:08.114Z,8.80
2019-04-07T03:57:07.271Z,9.00
2019-04-07T03:58:08.038Z,9.20
2019-04-07T03:59:07.635Z,9.00
2019-04-07T04:00:07.227Z,8.90
2019-04-07T04:01:08.199Z,9.00
2019-04-07T04:02:07.978Z,9.30
2019-04-07T04:03:07.197Z,9.50
2019-04-07T04:04:07.418Z,8.90
2019-04-07T04:05:07.175Z,9.30
2019-04-07T04:06:07.163Z,8.80
2019-04-07T04:07:20.206Z,9.40
2019-04-07T04:08:08.151Z,8.70
2019-04-07T04:09:08.233Z,9.40
2019-04-07T04:10:07.136Z,8.60
2019-04-07T04:11:07.106Z,8.80
2019-04-07T04:12:07.215Z,8.90
2019-04-07T04:13:07.131Z,9.20
2019-04-07T04:14:07.787Z,9.30
2019-04-07T04:15:07.089Z,9.30
2019-04-07T04:16:07.955Z,9.00
2019-04-07T04:17:07.052Z,8.90
2019-04-07T04:18:07.035Z,8.90
2019-04-07T04:19:07.029Z,9.10
2019-04-07T04:20:07.016Z,8.90
2019-04-07T04:21:07.086Z,9.00
2019-04-07T04:22:07.407Z,8.70
2019-04-07T04:23:07.795Z,9.40
2019-04-07T04:24:08.222Z,8.60
2019-04-07T04:25:06.967Z,9.30
2019-04-07T04:26:06.944Z,9.30
2019-04-07T04:27:06.954Z,9.30
2019-04-07T04:28:07.825Z,9.10
2019-04-07T04:29:06.914Z,8.80
2019-04-07T04:30:07.026Z,9.40
2019-04-07T04:31:06.890Z,8.60
2019-04-07T04:32:07.706Z,9.30
2019-04-07T04:33:06.869Z,8.90
2019-04-07T04:34:06.866Z,8.70
2019-04-07T04:35:06.850Z,9.00
2019-04-07T04:36:07.976Z,8.80
2019-04-07T04:37:06.826Z,8.80
2019-04-07T04:38:06.818Z,9.00
2019-04-07T04:39:08.116Z,9.00
2019-04-07T04:40:07.292Z,9.20
2019-04-07T04:41:06.954Z,9.30
2019-04-07T04:42:07.091Z,8.80
2019-04-07T04:43:06.767Z,9.20
2019-04-07T04:44:06.759Z,8.80
2019-04-07T04:45:06.743Z,9.20
2019-04-07T04:46:09.565Z,8.60
2019-04-07T04:47:06.719Z,8.90
2019-04-07T04:48:06.876Z,9.30
2019-04-07T04:49:06.787Z,9.00
2019-04-07T04:50:07.958Z,9.20
2019-04-07T04:51:06.782Z,8.80
2019-04-07T04:52:07.116Z,9.10
2019-04-07T04:53:06.654Z,8.70
2019-04-07T04:54:07.077Z,9.10
2019-04-07T04:55:07.188Z,9.00
2019-04-07T04:56:07.529Z,8.80
2019-04-07T04:57:08.931Z,8.80
2019-04-07T04:58:07.279Z,8.70
2019-04-07T04:59:07.453Z,8.70
2019-04-07T05:00:06.580Z,9.10
2019-04-07T05:01:06.590Z,9.50
2019-04-07T05:02:06.560Z,8.80
2019-04-07T05:03:07.180Z,8.80
2019-04-07T05:04:07.370Z,8.90
2019-04-07T05:05:09.201Z,8.70
2019-04-07T05:06:06.713Z,8.70
2019-04-07T05:07:06.522Z,9.30
2019-04-07T05:08:06.883Z,8.70
2019-04-07T05:09:06.879Z,9.30
2019-04-07T05:10:06.867Z,8.70
2019-04-07T05:11:06.866Z,9.20
2019-04-07T05:12:06.887Z,8.80
2019-04-07T05:13:07.238Z,8.70
2019-04-07T05:14:07.116Z,8.80
2019-04-07T05:15:06.423Z,9.00
2019-04-07T05:16:07.081Z,8.40
2019-04-07T05:17:06.400Z,8.60
2019-04-07T05:18:06.493Z,8.60
2019-04-07T05:19:06.378Z,8.70
2019-04-07T05:20:06.831Z,8.60
2019-04-07T05:21:06.353Z,9.00
2019-04-07T05:22:07.103Z,9.10
2019-04-07T05:23:06.331Z,8.80
2019-04-07T05:24:06.856Z,8.70
2019-04-07T05:25:06.988Z,8.60
2019-04-07T05:26:06.950Z,9.10
2019-04-07T05:27:06.463Z,9.00
2019-04-07T05:28:06.289Z,9.00
2019-04-07T05:29:06.274Z,8.40
2019-04-07T05:30:06.666Z,8.60
2019-04-07T05:31:07.253Z,8.90
2019-04-07T05:32:06.905Z,9.10
2019-04-07T05:33:06.224Z,9.00
2019-04-07T05:34:06.615Z,8.70
2019-04-07T05:35:06.204Z,9.40
2019-04-07T05:36:06.213Z,8.90
2019-04-07T05:37:06.552Z,8.70
2019-04-07T05:38:07.638Z,9.10
2019-04-07T05:39:06.523Z,8.80
2019-04-07T05:40:06.268Z,8.90
2019-04-07T05:41:06.514Z,8.50
2019-04-07T05:42:06.131Z,8.80
2019-04-07T05:43:06.338Z,9.30
2019-04-07T05:44:06.332Z,9.30
2019-04-07T05:45:06.582Z,8.70
2019-04-07T05:46:08.058Z,8.70
2019-04-07T05:47:06.124Z,8.50
2019-04-07T05:48:06.446Z,8.20
2019-04-07T05:49:06.643Z,8.80
2019-04-07T05:50:06.211Z,8.90
2019-04-07T05:51:07.136Z,8.50
2019-04-07T05:52:06.705Z,8.90
2019-04-07T05:53:09.502Z,8.60
2019-04-07T05:54:05.999Z,9.00
2019-04-07T05:55:06.007Z,8.90
2019-04-07T05:56:06.122Z,8.50
2019-04-07T05:57:05.967Z,9.20
2019-04-07T05:58:08.174Z,8.70
2019-04-07T05:59:07.951Z,9.30
2019-04-07T06:00:06.568Z,8.80
2019-04-07T06:01:06.351Z,8.70
2019-04-07T06:02:05.925Z,8.90
2019-04-07T06:03:08.363Z,8.90
2019-04-07T06:04:06.652Z,8.80
2019-04-07T06:05:06.570Z,9.10
2019-04-07T06:06:05.871Z,9.30
2019-04-07T06:07:05.930Z,9.10
2019-04-07T06:08:21.262Z,9.20
2019-04-07T06:09:07.226Z,10.20
2019-04-07T06:10:05.846Z,14.00
2019-04-07T06:11:06.195Z,13.30
2019-04-07T06:12:07.998Z,11.90
2019-04-07T06:13:05.796Z,13.60
2019-04-07T06:14:05.811Z,14.40
2019-04-07T06:15:06.268Z,14.50
2019-04-07T06:16:05.813Z,14.70
2019-04-07T06:17:06.487Z,14.50
2019-04-07T06:18:05.743Z,14.00
2019-04-07T06:19:07.984Z,15.50
2019-04-07T06:20:05.722Z,14.90
2019-04-07T06:21:06.092Z,15.90
2019-04-07T06:22:07.579Z,15.40
2019-04-07T06:23:06.193Z,16.30
2019-04-07T06:24:05.677Z,15.50
2019-04-07T06:25:06.166Z,15.50
2019-04-07T06:26:09.312Z,16.10
2019-04-07T06:27:06.645Z,16.00
2019-04-07T06:28:05.635Z,16.20
2019-04-07T06:29:05.954Z,16.40
2019-04-07T06:30:05.624Z,16.40
2019-04-07T06:31:06.522Z,16.50
2019-04-07T06:32:09.159Z,17.00
2019-04-07T06:33:07.258Z,16.30
2019-04-07T06:34:08.683Z,16.40
2019-04-07T06:35:05.587Z,15.80
2019-04-07T06:36:05.576Z,16.50
2019-04-07T06:37:05.685Z,16.00
2019-04-07T06:38:07.880Z,16.60
2019-04-07T06:39:05.523Z,15.00
2019-04-07T06:40:05.639Z,15.00
2019-04-07T06:41:06.124Z,15.90
2019-04-07T06:42:05.902Z,16.50
2019-04-07T06:43:06.356Z,16.50
2019-04-07T06:44:11.273Z,17.00
2019-04-07T06:45:06.453Z,16.50
2019-04-07T06:46:06.089Z,17.40
2019-04-07T06:47:05.433Z,17.40
2019-04-07T06:48:08.314Z,18.20
2019-04-07T06:49:05.928Z,18.50
2019-04-07T06:50:05.765Z,17.90
2019-04-07T06:51:06.048Z,19.20
2019-04-07T06:52:05.464Z,17.90
2019-04-07T06:53:05.503Z,18.40
2019-04-07T06:54:05.840Z,17.40
2019-04-07T06:55:05.506Z,18.30
2019-04-07T06:56:06.017Z,17.50
2019-04-07T06:57:06.438Z,18.10
2019-04-07T06:58:07.539Z,17.80
2019-04-07T06:59:05.730Z,18.20
2019-04-07T07:00:08.094Z,18.40
2019-04-07T07:01:05.828Z,18.10
2019-04-07T07:02:05.517Z,18.20
2019-04-07T07:03:05.261Z,18.20
2019-04-07T07:04:08.595Z,18.20
2019-04-07T07:05:06.245Z,17.90
2019-04-07T07:06:05.698Z,17.70
2019-04-07T07:07:06.506Z,17.90
2019-04-07T07:08:05.229Z,17.80
2019-04-07T07:09:05.197Z,18.20
2019-04-07T07:10:06.523Z,16.90
2019-04-07T07:11:07.694Z,18.00
2019-04-07T07:12:05.206Z,18.40
2019-04-07T07:13:09.694Z,17.10
2019-04-07T07:14:07.801Z,17.00
2019-04-07T07:15:05.152Z,17.40
2019-04-07T07:16:07.889Z,17.10
2019-04-07T07:17:06.338Z,17.30
2019-04-07T07:18:05.160Z,17.00
2019-04-07T07:19:05.240Z,17.70
2019-04-07T07:20:05.939Z,18.20
2019-04-07T07:21:05.125Z,17.80
2019-04-07T07:22:10.045Z,17.50
2019-04-07T07:23:06.048Z,16.30
2019-04-07T07:24:05.061Z,16.60
2019-04-07T07:25:05.235Z,17.70
2019-04-07T07:26:05.015Z,16.90
2019-04-07T07:27:07.276Z,17.60
2019-04-07T07:28:05.005Z,17.50
2019-04-07T07:29:06.436Z,17.40
2019-04-07T07:30:05.564Z,17.20
2019-04-07T07:31:05.384Z,17.70
2019-04-07T07:32:04.985Z,17.40
2019-04-07T07:33:07.473Z,18.20
2019-04-07T07:34:09.299Z,18.70
2019-04-07T07:35:05.100Z,18.60
2019-04-07T07:36:04.907Z,18.00
2019-04-07T07:37:05.234Z,18.50
2019-04-07T07:38:04.952Z,18.20
2019-04-07T07:39:08.584Z,17.00
2019-04-07T07:40:08.455Z,17.20
2019-04-07T07:41:04.887Z,17.50
2019-04-07T07:42:04.841Z,17.90
2019-04-07T07:43:05.492Z,17.10
2019-04-07T07:44:07.638Z,17.30
2019-04-07T07:45:08.240Z,16.70
2019-04-07T07:46:06.754Z,17.20
2019-04-07T07:47:04.806Z,16.60
2019-04-07T07:48:05.354Z,16.50
2019-04-07T07:49:04.768Z,16.80
2019-04-07T07:50:05.418Z,17.80
2019-04-07T07:51:07.176Z,17.50
2019-04-07T07:52:04.965Z,17.90
2019-04-07T07:53:04.789Z,18.20
2019-04-07T07:54:04.771Z,17.80
2019-04-07T07:55:05.740Z,18.70
2019-04-07T07:56:08.401Z,18.00
2019-04-07T07:57:05.686Z,18.40
2019-04-07T07:58:04.674Z,17.80
2019-04-07T07:59:04.688Z,17.50
2019-04-07T08:00:06.950Z,18.10
2019-04-07T08:01:05.344Z,17.50
2019-04-07T08:02:04.632Z,17.90
2019-04-07T08:03:04.871Z,17.40
2019-04-07T08:04:05.250Z,17.00
2019-04-07T08:05:04.594Z,17.10
2019-04-07T08:06:07.971Z,16.70
2019-04-07T08:07:05.429Z,16.70
2019-04-07T08:08:04.797Z,17.20
2019-04-07T08:09:11.947Z,15.80
2019-04-07T08:10:05.539Z,16.40
2019-04-07T08:11:04.638Z,16.10
2019-04-07T08:12:05.163Z,15.40
2019-04-07T08:13:07.473Z,16.30
2019-04-07T08:14:04.498Z,16.20
2019-04-07T08:15:04.910Z,15.10
2019-04-07T08:16:05.086Z,16.40
2019-04-07T08:17:04.470Z,16.10
2019-04-07T08:18:07.182Z,16.00
2019-04-07T08:19:04.457Z,15.80
2019-04-07T08:20:04.439Z,15.00
2019-04-07T08:21:04.430Z,15.60
2019-04-07T08:22:06.453Z,15.40
2019-04-07T08:23:05.239Z,14.90
2019-04-07T08:24:04.399Z,14.60
2019-04-07T08:25:05.213Z,14.70
2019-04-07T08:26:04.969Z,14.80
2019-04-07T08:27:05.142Z,13.70
2019-04-07T08:28:04.713Z,14.30
2019-04-07T08:29:06.822Z,14.20
2019-04-07T08:30:06.995Z,13.60
2019-04-07T08:31:05.553Z,13.80
2019-04-07T08:32:04.314Z,14.40
2019-04-07T08:33:04.880Z,14.60
2019-04-07T08:34:04.290Z,13.80
2019-04-07T08:35:05.605Z,14.00
2019-04-07T08:36:04.401Z,13.30
2019-04-07T08:37:04.814Z,13.80
2019-04-07T08:38:04.600Z,13.60
2019-04-07T08:39:04.972Z,13.90
2019-04-07T08:40:07.151Z,13.20
2019-04-07T08:41:04.238Z,13.70
2019-04-07T08:42:09.583Z,13.20
2019-04-07T08:43:06.054Z,13.50
2019-04-07T08:44:04.267Z,13.20
2019-04-07T08:45:04.631Z,13.30
2019-04-07T08:46:05.048Z,13.30
2019-04-07T08:47:04.144Z,13.00
2019-04-07T08:48:04.197Z,12.80
2019-04-07T08:49:04.130Z,13.40
2019-04-07T08:50:04.118Z,13.10
2019-04-07T08:51:04.720Z,12.80
2019-04-07T08:52:08.421Z,13.10
2019-04-07T08:53:05.088Z,13.40
2019-04-07T08:54:04.717Z,12.40
2019-04-07T08:55:04.058Z,13.30
2019-04-07T08:56:06.731Z,12.90
2019-04-07T08:57:04.600Z,13.40
2019-04-07T08:58:05.595Z,13.40
2019-04-07T08:59:04.031Z,13.20
2019-04-07T09:00:04.040Z,12.80
2019-04-07T09:01:04.009Z,12.70
2019-04-07T09:02:04.294Z,12.50
2019-04-07T09:03:09.732Z,12.60
2019-04-07T09:04:05.603Z,12.20
2019-04-07T09:05:04.447Z,12.90
2019-04-07T09:06:04.712Z,13.00
2019-04-07T09:07:04.373Z,12.10
2019-04-07T09:08:06.001Z,12.80
2019-04-07T09:09:07.075Z,11.90
2019-04-07T09:10:03.892Z,11.90
2019-04-07T09:11:04.614Z,11.70
2019-04-07T09:12:03.882Z,11.90
2019-04-07T09:13:07.975Z,12.20
2019-04-07T09:14:06.438Z,12.00
2019-04-07T09:15:05.213Z,11.90
2019-04-07T09:16:04.658Z,12.30
2019-04-07T09:17:04.565Z,12.40
2019-04-07T09:18:04.420Z,11.70
2019-04-07T09:19:06.923Z,11.70
2019-04-07T09:20:07.571Z,11.70
2019-04-07T09:21:04.772Z,11.70
2019-04-07T09:22:03.763Z,12.00
2019-04-07T09:23:04.604Z,10.90
2019-04-07T09:24:03.856Z,12.00
2019-04-07T09:25:08.146Z,12.40
2019-04-07T09:26:05.461Z,11.80
2019-04-07T09:27:03.719Z,11.40
2019-04-07T09:28:03.730Z,11.60
2019-04-07T09:29:04.014Z,11.30
2019-04-07T09:30:06.039Z,11.70
2019-04-07T09:31:04.543Z,11.40
2019-04-07T09:32:04.366Z,11.80
2019-04-07T09:33:05.959Z,11.20
2019-04-07T09:34:05.238Z,11.50
2019-04-07T09:35:05.671Z,11.80
2019-04-07T09:36:03.701Z,11.10
2019-04-07T09:37:04.413Z,11.30
2019-04-07T09:38:03.590Z,11.40
2019-04-07T09:39:04.026Z,11.50
2019-04-07T09:40:05.347Z,11.20
2019-04-07T09:41:03.784Z,11.10
2019-04-07T09:42:04.180Z,11.30
2019-04-07T09:43:04.170Z,11.50
2019-04-07T09:44:03.986Z,11.00
2019-04-07T09:45:07.372Z,11.80
2019-04-07T09:46:04.961Z,11.60
2019-04-07T09:47:04.216Z,11.40
2019-04-07T09:48:04.087Z,11.70
2019-04-07T09:49:03.813Z,11.30
2019-04-07T09:50:03.669Z,11.40
2019-04-07T09:51:06.967Z,11.40
2019-04-07T09:52:03.465Z,10.70
2019-04-07T09:53:03.429Z,11.10
2019-04-07T09:54:04.031Z,11.60
2019-04-07T09:55:03.409Z,10.90
2019-04-07T09:56:03.797Z,11.50
2019-04-07T09:57:06.012Z,11.40
2019-04-07T09:58:03.386Z,11.30
2019-04-07T09:59:03.619Z,11.50
2019-04-07T10:00:03.355Z,11.30
2019-04-07T10:01:05.813Z,11.60
2019-04-07T10:02:06.245Z,11.10
2019-04-07T10:03:07.786Z,10.70
2019-04-07T10:04:07.062Z,11.70
2019-04-07T10:05:03.298Z,11.30
2019-04-07T10:06:03.286Z,11.50
2019-04-07T10:07:03.642Z,11.40
2019-04-07T10:08:03.364Z,11.40
2019-04-07T10:09:03.343Z,10.90
2019-04-07T10:10:10.182Z,11.90
2019-04-07T10:11:04.284Z,10.90
2019-04-07T10:12:03.231Z,10.70
2019-04-07T10:13:03.220Z,10.20
2019-04-07T10:14:03.378Z,11.20
2019-04-07T10:15:03.190Z,10.50
2019-04-07T10:16:05.167Z,10.90
2019-04-07T10:17:03.170Z,10.70
2019-04-07T10:18:04.051Z,10.60
2019-04-07T10:19:03.175Z,10.50
2019-04-07T10:20:03.147Z,10.40
2019-04-07T10:21:03.264Z,10.40
2019-04-07T10:22:03.577Z,10.80
2019-04-07T10:23:03.181Z,10.10
2019-04-07T10:24:03.097Z,10.10
2019-04-07T10:25:03.083Z,10.30
2019-04-07T10:26:04.014Z,9.90
2019-04-07T10:27:03.087Z,10.70
2019-04-07T10:28:03.049Z,11.20
2019-04-07T10:29:04.439Z,10.90
2019-04-07T10:30:03.536Z,10.40
2019-04-07T10:31:03.453Z,10.90
2019-04-07T10:32:03.488Z,10.90
2019-04-07T10:33:03.278Z,10.50
2019-04-07T10:34:03.109Z,10.40
2019-04-07T10:35:02.988Z,10.10
2019-04-07T10:36:02.991Z,10.00
2019-04-07T10:37:04.867Z,10.10
2019-04-07T10:38:03.848Z,10.10
2019-04-07T10:39:03.176Z,10.90
2019-04-07T10:40:03.120Z,10.50
2019-04-07T10:41:02.931Z,9.90
2019-04-07T10:42:02.903Z,10.30
2019-04-07T10:43:03.085Z,9.70
2019-04-07T10:44:02.878Z,10.10
2019-04-07T10:45:03.565Z,9.80
2019-04-07T10:46:02.888Z,10.40
2019-04-07T10:47:03.725Z,9.60
2019-04-07T10:48:02.883Z,10.10
2019-04-07T10:49:04.296Z,10.40
2019-04-07T10:50:07.022Z,10.20
2019-04-07T10:51:04.453Z,10.00
2019-04-07T10:52:02.912Z,10.20
2019-04-07T10:53:02.783Z,9.70
2019-04-07T10:54:02.777Z,10.10
2019-04-07T10:55:02.920Z,9.90
2019-04-07T10:56:02.763Z,9.80
2019-04-07T10:57:03.341Z,10.00
2019-04-07T10:58:03.111Z,9.70
2019-04-07T10:59:03.080Z,10.00
2019-04-07T11:00:03.392Z,9.40
2019-04-07T11:01:03.034Z,10.10
2019-04-07T11:02:02.778Z,9.80
2019-04-07T11:03:03.131Z,9.80
2019-04-07T11:04:02.665Z,10.40
2019-04-07T11:05:02.967Z,9.70
2019-04-07T11:06:02.645Z,10.10
2019-04-07T11:07:03.071Z,9.50
2019-04-07T11:08:02.647Z,10.30
2019-04-07T11:09:02.609Z,9.80
2019-04-07T11:10:02.886Z,9.60
2019-04-07T11:11:03.386Z,9.30
2019-04-07T11:12:03.278Z,9.80
2019-04-07T11:13:03.109Z,9.60
2019-04-07T11:14:02.675Z,10.10
2019-04-07T11:15:02.588Z,9.40
2019-04-07T11:16:02.538Z,9.50
2019-04-07T11:17:02.542Z,9.30
2019-04-07T11:18:03.082Z,9.90
2019-04-07T11:19:03.278Z,9.50
2019-04-07T11:20:02.979Z,9.80
2019-04-07T11:21:03.365Z,10.20
2019-04-07T11:22:02.473Z,9.20
2019-04-07T11:23:02.995Z,9.30
2019-04-07T11:24:03.849Z,9.20
2019-04-07T11:25:02.441Z,9.40
2019-04-07T11:26:02.638Z,9.00
2019-04-07T11:27:02.950Z,9.60
2019-04-07T11:28:02.676Z,9.80
2019-04-07T11:29:02.749Z,9.30
2019-04-07T11:30:02.382Z,9.70
2019-04-07T11:31:02.371Z,9.80
2019-04-07T11:32:02.360Z,9.20
2019-04-07T11:33:02.755Z,9.70
2019-04-07T11:34:03.082Z,9.70
2019-04-07T11:35:02.845Z,9.40
2019-04-07T11:36:02.434Z,9.50
2019-04-07T11:37:02.306Z,9.60
2019-04-07T11:38:02.725Z,9.50
2019-04-07T11:39:02.550Z,9.30
2019-04-07T11:40:02.330Z,9.80
2019-04-07T11:41:02.559Z,9.60
2019-04-07T11:42:04.668Z,9.70
2019-04-07T11:43:02.329Z,9.50
2019-04-07T11:44:02.239Z,9.50
2019-04-07T11:45:03.115Z,9.50
2019-04-07T11:46:03.381Z,9.60
2019-04-07T11:47:02.259Z,9.20
2019-04-07T11:48:02.191Z,10.30
2019-04-07T11:49:02.441Z,9.10
2019-04-07T11:50:02.168Z,9.10
2019-04-07T11:51:03.225Z,9.40
2019-04-07T11:52:02.144Z,9.30
2019-04-07T11:53:02.137Z,9.30
2019-04-07T11:54:02.123Z,9.30
2019-04-07T11:55:02.393Z,9.30
2019-04-07T11:56:06.127Z,9.50
2019-04-07T11:57:03.364Z,9.00
2019-04-07T11:58:11.560Z,9.30
2019-04-07T11:59:03.070Z,9.20
2019-04-07T12:00:02.452Z,9.50
2019-04-07T12:01:02.504Z,9.00
2019-04-07T12:02:03.531Z,9.50
2019-04-07T12:03:02.858Z,9.40
2019-04-07T12:04:02.501Z,9.00
2019-04-07T12:05:02.002Z,9.50
2019-04-07T12:06:02.583Z,8.90
2019-04-07T12:07:02.450Z,9.20
2019-04-07T12:08:02.017Z,9.10
2019-04-07T12:09:02.238Z,9.00
2019-04-07T12:10:01.952Z,9.40
2019-04-07T12:11:04.757Z,9.00
2019-04-07T12:12:02.501Z,9.20
2019-04-07T12:13:01.926Z,9.30
2019-04-07T12:14:01.911Z,8.90
2019-04-07T12:15:02.227Z,8.90
2019-04-07T12:16:02.149Z,9.30
2019-04-07T12:17:05.782Z,9.00
2019-04-07T12:18:03.737Z,9.30
2019-04-07T12:19:01.855Z,8.80
2019-04-07T12:20:01.847Z,9.30
2019-04-07T12:21:04.254Z,8.90
2019-04-07T12:22:02.357Z,9.40
2019-04-07T12:23:01.810Z,8.80
2019-04-07T12:24:03.282Z,8.60
2019-04-07T12:25:04.179Z,8.50
2019-04-07T12:26:04.255Z,8.80
2019-04-07T12:27:02.020Z,9.30
2019-04-07T12:28:01.753Z,8.80
2019-04-07T12:29:02.586Z,8.70
2019-04-07T12:30:02.588Z,8.60
2019-04-07T12:31:02.131Z,9.10
2019-04-07T12:32:02.452Z,8.70
2019-04-07T12:33:05.039Z,8.50
2019-04-07T12:34:02.922Z,8.30
2019-04-07T12:35:01.693Z,8.40
2019-04-07T12:36:01.970Z,9.10
2019-04-07T12:37:06.173Z,8.80
2019-04-07T12:38:02.647Z,8.80
2019-04-07T12:39:01.850Z,8.50
2019-04-07T12:40:01.622Z,8.60
2019-04-07T12:41:13.483Z,8.70
2019-04-07T12:42:05.173Z,8.30
2019-04-07T12:43:02.413Z,9.10
2019-04-07T12:44:01.696Z,8.20
2019-04-07T12:45:01.839Z,8.70
2019-04-07T12:46:02.358Z,8.20
2019-04-07T12:47:01.814Z,8.90
2019-04-07T12:48:01.552Z,8.60
2019-04-07T12:49:05.407Z,9.20
2019-04-07T12:50:02.544Z,8.40
2019-04-07T12:51:01.998Z,8.10
2019-04-07T12:52:01.503Z,8.70
2019-04-07T12:53:02.788Z,8.90
2019-04-07T12:54:01.891Z,8.50
2019-04-07T12:55:01.680Z,8.70
2019-04-07T12:56:02.487Z,8.30
2019-04-07T12:57:03.622Z,8.90
2019-04-07T12:58:02.152Z,9.30
2019-04-07T12:59:01.505Z,9.10
2019-04-07T13:00:01.669Z,8.60
2019-04-07T13:01:09.583Z,8.30
2019-04-07T13:02:05.939Z,8.90
2019-04-07T13:03:01.712Z,8.40
2019-04-07T13:04:01.363Z,8.60
2019-04-07T13:05:03.803Z,8.50
2019-04-07T13:06:01.885Z,8.10